Quinlan, Texas
Current Conditions -  °F | °C
As of 11:35 PM on Wednesday 26 Nov 2014 (Local Time) from KGVT Reporting Station
Clear Clear  
Wind Chill: 42°   Ceiling: Unl
Heat Index: 46°   Visibility: 10mi
Dew Point: 28°   Wind: 9mph
Humidity: 50%   Direction: 360°N
Pressure: 30.4"   Gusts: NA
Location:  32.91°N, 96.14°W
Report Text: KGVT 270535Z AUTO 36008KT 10SM CLR 08/M02 A3040 RMK AO2
Loading
Personal Weather Stations






























Interactive Weather Map New forecast layout! Learn more

10-Day Weather Forecast

Advertisements
Track Severe Weather on mobile